Arianta — MGKU9 — position and weather

sailwx.info

Track history (hours):
 
Tides and Currents Weather Stations Pressure Air Temp Water Temp Dewpoint Dewpoint Depression Visibility Wind Speed Wind Dir Waves Ship Positions

Arianta

Last reported at 2017-Nov-11 01:47 UTC. Time now 2017-Nov-19 21:43 UTC.
Position N 14°27' W 061°15'.
Warning: this ship's position is 8 days out of date.

Length 140 m; draft 6.5 m.

Type: Ship. MMSI: 232698000.

Date/timePositionNaut miles runAvg speedWind from/ knotsBaromVisibWave heightAir tempDewpointWater temp
2017-Nov-11 01:47N 14°27' W 061°15'3 9.9
2017-Nov-11 01:30N 14°29' W 061°14'5 9.9
2017-Nov-11 01:00N 14°34' W 061°13'5 9.7
2017-Nov-11 00:30N 14°38' W 061°11'6 0.2
2017-Nov-09 09:33N 14°34' W 061°06'0 0.1
2017-Nov-09 08:51N 14°34' W 061°06'0 0.1
2017-Nov-09 08:30N 14°34' W 061°06'0 0.0
2017-Nov-09 07:57N 14°34' W 061°06'0 0.0
2017-Nov-09 07:21N 14°34' W 061°06'0 0.1
2017-Nov-09 07:00N 14°34' W 061°06'0 0.0
2017-Nov-09 06:30N 14°34' W 061°06'0 0.0
2017-Nov-09 06:00N 14°34' W 061°06'0 0.0
2017-Nov-09 04:24N 14°34' W 061°06'0 0.0
2017-Nov-09 04:00N 14°34' W 061°06'0 0.0
2017-Nov-09 03:21N 14°34' W 061°06'0 0.0
2017-Nov-09 02:57N 14°34' W 061°06'0 0.0
2017-Nov-09 02:30N 14°34' W 061°06'0 0.0
2017-Nov-09 01:57N 14°34' W 061°06'0 0.1
2017-Nov-09 01:30N 14°34' W 061°06'0 0.0
2017-Nov-09 01:00N 14°34' W 061°06'0 0.0
2017-Nov-09 00:27N 14°34' W 061°06'0 0.0
2017-Nov-09 00:00N 14°34' W 061°06'0 0.0
2017-Nov-08 23:30N 14°34' W 061°06'0 0.0
2017-Nov-08 23:00N 14°34' W 061°06'0 0.0
2017-Nov-08 22:30N 14°34' W 061°06'0 0.1
2017-Nov-08 22:00N 14°34' W 061°06'0 0.0
2017-Nov-08 21:27N 14°34' W 061°06'0 0.0
2017-Nov-08 20:57N 14°34' W 061°06'0 0.0
2017-Nov-08 20:30N 14°34' W 061°06'0 0.0
2017-Nov-08 20:00N 14°34' W 061°06'0 0.1
2017-Nov-08 19:30N 14°34' W 061°06'0 0.0
2017-Nov-08 19:00N 14°34' W 061°06'0 0.0
2017-Nov-08 18:30N 14°34' W 061°06'0 0.0
2017-Nov-08 17:54N 14°34' W 061°06'0 0.1
2017-Nov-08 17:21N 14°34' W 061°06'0 0.0
2017-Nov-08 16:51N 14°34' W 061°06'0 0.1
2017-Nov-08 16:30N 14°34' W 061°06'0 0.0
2017-Nov-08 16:00N 14°34' W 061°06'0 0.1
2017-Nov-08 15:30N 14°34' W 061°06'0 0.0
2017-Nov-08 15:00N 14°34' W 061°06'0 0.0
2017-Nov-08 14:30N 14°34' W 061°06'0 0.0
2017-Nov-08 14:00N 14°34' W 061°06'0 0.0
2017-Nov-08 13:31N 14°34' W 061°06'0 0.1
2017-Nov-08 12:55N 14°34' W 061°06'0 0.1
2017-Nov-08 12:31N 14°34' W 061°06'0 0.1
2017-Nov-08 12:01N 14°34' W 061°06'0 0.1
2017-Nov-08 11:30N 14°34' W 061°06'0 0.0
2017-Nov-08 11:01N 14°34' W 061°06'0 0.0
2017-Nov-08 10:31N 14°34' W 061°06'0 0.1
2017-Nov-08 10:00N 14°34' W 061°06'0 0.0
2017-Nov-08 09:30N 14°34' W 061°06'0 0.0
2017-Nov-08 09:01N 14°34' W 061°06'0 0.0
2017-Nov-08 08:31N 14°34' W 061°06'0 0.2
2017-Nov-08 08:00N 14°34' W 061°06'1 1.5
2017-Nov-08 07:30N 14°34' W 061°06'5 8.8
2017-Nov-08 06:59N 14°37' W 061°10'132 8.4
2017-Nov-07 15:20N 16°05' W 062°52'3 8.8
2017-Nov-07 15:00N 16°07' W 062°55'  
2017-Nov-04 07:03N 16°28' W 062°40'111.0
2017-Nov-04 06:56N 16°28' W 062°39'510.9
2017-Nov-04 06:27N 16°25' W 062°35'511.0
2017-Nov-04 06:00N 16°22' W 062°30'2110.5
2017-Nov-04 03:58N 16°12' W 062°11'5 9.7
2017-Nov-04 03:26N 16°09' W 062°06'4 9.6
2017-Nov-04 03:00N 16°07' W 062°03'5 9.7
2017-Nov-04 02:30N 16°04' W 061°59'710.0
2017-Nov-04 01:47N 16°00' W 061°52'310.3
2017-Nov-04 01:29N 15°59' W 061°49'610.2
2017-Nov-04 00:53N 15°56' W 061°44'17 9.2
2017-Nov-03 23:05N 16°06' W 061°30'310.6
2017-Nov-03 22:48N 16°10' W 061°30'4 9.1
2017-Nov-03 22:25N 16°13' W 061°32'2 4.1
2017-Nov-03 22:00N 16°14' W 061°33'0 0.0
2017-Nov-03 21:30N 16°14' W 061°33'0 0.0
2017-Nov-03 21:00N 16°14' W 061°33'0 0.0
2017-Nov-03 20:30N 16°14' W 061°33'0 0.0
2017-Nov-03 20:00N 16°14' W 061°33'0 0.0
2017-Nov-03 19:30N 16°14' W 061°33'0 0.0
2017-Nov-03 19:00N 16°14' W 061°33'0 0.0
2017-Nov-03 18:30N 16°14' W 061°33'0 0.0
2017-Nov-03 18:00N 16°14' W 061°33'0 0.0
2017-Nov-03 17:30N 16°14' W 061°33'0 0.0
2017-Nov-03 17:00N 16°14' W 061°33'0 0.0
2017-Nov-03 16:30N 16°14' W 061°33'0 0.0
2017-Nov-03 15:59N 16°14' W 061°33'0 0.0
2017-Nov-03 15:30N 16°14' W 061°33'0 0.0
2017-Nov-03 15:00N 16°14' W 061°33'0 0.0
2017-Nov-03 14:30N 16°14' W 061°33'0 0.0
2017-Nov-03 14:00N 16°14' W 061°33'0 0.0
2017-Nov-03 13:30N 16°14' W 061°33'0 0.0
2017-Nov-03 13:00N 16°14' W 061°33'0 0.0
2017-Nov-03 12:30N 16°14' W 061°33'0 0.0
2017-Nov-03 12:00N 16°14' W 061°33'0 0.0
2017-Nov-03 11:30N 16°14' W 061°33'0 0.0
2017-Nov-03 11:00N 16°14' W 061°33'0 0.0
2017-Nov-03 10:30N 16°14' W 061°33'0 0.0
2017-Nov-03 10:00N 16°14' W 061°33'0 0.0
2017-Nov-03 09:30N 16°14' W 061°33'0 0.0
2017-Nov-03 09:00N 16°14' W 061°33'0 0.0
2017-Nov-03 08:30N 16°14' W 061°33'0 0.0
2017-Nov-03 08:00N 16°14' W 061°33'0 0.0
2017-Nov-03 07:30N 16°14' W 061°33'0 0.0
2017-Nov-03 07:00N 16°14' W 061°33'0 0.0
2017-Nov-03 06:30N 16°14' W 061°33'0 0.0
2017-Nov-03 06:00N 16°14' W 061°33'0 0.0
2017-Nov-03 05:29N 16°14' W 061°33'0 0.0
2017-Nov-03 05:00N 16°14' W 061°33'0 0.0
2017-Nov-03 04:30N 16°14' W 061°33'0 0.0
2017-Nov-03 04:00N 16°14' W 061°33'0 0.0
2017-Nov-03 03:30N 16°14' W 061°33'0 0.0
2017-Nov-03 03:00N 16°14' W 061°33'0 0.0
2017-Nov-03 02:30N 16°14' W 061°33'0 0.0
2017-Nov-03 02:00N 16°14' W 061°33'0 0.0
2017-Nov-03 01:30N 16°14' W 061°33'0 0.0
2017-Nov-03 01:00N 16°14' W 061°33'0 0.0
2017-Nov-03 00:30N 16°14' W 061°33'0 0.0
2017-Nov-03 00:00N 16°14' W 061°33'0 0.0
2017-Nov-02 23:30N 16°14' W 061°33'0 0.1
2017-Nov-02 22:59N 16°14' W 061°33'1 2.2
2017-Nov-02 22:30N 16°13' W 061°32'1 2.7
2017-Nov-02 22:00N 16°12' W 061°32'0 0.0
2017-Nov-02 21:14N 16°12' W 061°32'0 0.0
2017-Nov-02 20:53N 16°12' W 061°32'0 0.1
2017-Nov-02 20:28N 16°12' W 061°32'0 0.2
2017-Nov-02 19:58N 16°12' W 061°32'0 0.0
2017-Nov-02 16:43N 16°12' W 061°33'0 0.0
2017-Nov-02 16:04N 16°12' W 061°33'0 0.1
2017-Nov-02 15:52N 16°12' W 061°33'0 0.0
2017-Nov-02 15:25N 16°12' W 061°33'0 0.1
2017-Nov-02 14:49N 16°12' W 061°33'0 0.2
2017-Nov-02 14:25N 16°12' W 061°32'0 0.1
2017-Nov-02 13:58N 16°12' W 061°32'0 0.0
2017-Nov-02 13:28N 16°12' W 061°32'0 0.0
2017-Nov-02 12:58N 16°12' W 061°32'0 0.0
2017-Nov-02 12:28N 16°12' W 061°32'0 0.0
2017-Nov-02 11:58N 16°12' W 061°32'0 0.0
2017-Nov-02 11:28N 16°12' W 061°32'0 0.0
2017-Nov-02 10:58N 16°12' W 061°32'0 0.0
2017-Nov-02 10:25N 16°12' W 061°32'0 0.1
2017-Nov-02 09:58N 16°12' W 061°32'0 0.1
2017-Nov-02 09:25N 16°12' W 061°32'0 0.1
2017-Nov-02 08:52N 16°12' W 061°33'0 0.0
2017-Nov-02 07:58N 16°12' W 061°33'0 0.0
2017-Nov-02 07:28N 16°12' W 061°33'0 0.0
2017-Nov-02 06:01N 16°12' W 061°33'0 0.0
2017-Nov-02 05:31N 16°12' W 061°33'0 0.0
2017-Nov-02 05:25N 16°12' W 061°33'0 0.0
2017-Nov-02 04:49N 16°12' W 061°33'0 0.0
2017-Nov-02 04:28N 16°12' W 061°33'0 0.0
2017-Nov-02 03:37N 16°12' W 061°33'0 0.1
2017-Nov-02 03:16N 16°12' W 061°33'0 0.0
2017-Nov-02 02:58N 16°12' W 061°33'0 0.0
2017-Nov-02 02:22N 16°12' W 061°33'0 0.0
2017-Nov-02 01:55N 16°12' W 061°33'0 0.0
2017-Nov-01 23:43N 16°12' W 061°33'0 0.0
2017-Nov-01 20:07N 16°12' W 061°33'0 0.0
2017-Nov-01 19:43N 16°12' W 061°33'0 0.0
2017-Nov-01 19:22N 16°12' W 061°33'0 0.0
2017-Nov-01 18:28N 16°12' W 061°33'0 0.0
2017-Nov-01 02:00N 16°12' W 061°32'  
Track history (hours):
 
Tides and Currents Weather Stations Pressure Air Temp Water Temp Dewpoint Dewpoint Depression Visibility Wind Speed Wind Dir Waves Ship Positions

Arianta

Last reported at 2017-Nov-11 01:47 UTC. Time now 2017-Nov-19 21:43 UTC.
Position N 14°27' W 061°15'.
Warning: this ship's position is 8 days out of date.

Length 140 m; draft 6.5 m.

Type: Ship. MMSI: 232698000.

Date/timePositionNaut miles runAvg speedWind from/ knotsBaromVisibWave heightAir tempDewpointWater temp
2017-Nov-11 01:47N 14°27' W 061°15'3 9.9
2017-Nov-11 01:30N 14°29' W 061°14'5 9.9
2017-Nov-11 01:00N 14°34' W 061°13'5 9.7
2017-Nov-11 00:30N 14°38' W 061°11'6 0.2
2017-Nov-09 09:33N 14°34' W 061°06'0 0.1
2017-Nov-09 08:51N 14°34' W 061°06'0 0.1
2017-Nov-09 08:30N 14°34' W 061°06'0 0.0
2017-Nov-09 07:57N 14°34' W 061°06'0 0.0
2017-Nov-09 07:21N 14°34' W 061°06'0 0.1
2017-Nov-09 07:00N 14°34' W 061°06'0 0.0
2017-Nov-09 06:30N 14°34' W 061°06'0 0.0
2017-Nov-09 06:00N 14°34' W 061°06'0 0.0
2017-Nov-09 04:24N 14°34' W 061°06'0 0.0
2017-Nov-09 04:00N 14°34' W 061°06'0 0.0
2017-Nov-09 03:21N 14°34' W 061°06'0 0.0
2017-Nov-09 02:57N 14°34' W 061°06'0 0.0
2017-Nov-09 02:30N 14°34' W 061°06'0 0.0
2017-Nov-09 01:57N 14°34' W 061°06'0 0.1
2017-Nov-09 01:30N 14°34' W 061°06'0 0.0
2017-Nov-09 01:00N 14°34' W 061°06'0 0.0
2017-Nov-09 00:27N 14°34' W 061°06'0 0.0
2017-Nov-09 00:00N 14°34' W 061°06'0 0.0
2017-Nov-08 23:30N 14°34' W 061°06'0 0.0
2017-Nov-08 23:00N 14°34' W 061°06'0 0.0
2017-Nov-08 22:30N 14°34' W 061°06'0 0.1
2017-Nov-08 22:00N 14°34' W 061°06'0 0.0
2017-Nov-08 21:27N 14°34' W 061°06'0 0.0
2017-Nov-08 20:57N 14°34' W 061°06'0 0.0
2017-Nov-08 20:30N 14°34' W 061°06'0 0.0
2017-Nov-08 20:00N 14°34' W 061°06'0 0.1
2017-Nov-08 19:30N 14°34' W 061°06'0 0.0
2017-Nov-08 19:00N 14°34' W 061°06'0 0.0
2017-Nov-08 18:30N 14°34' W 061°06'0 0.0
2017-Nov-08 17:54N 14°34' W 061°06'0 0.1
2017-Nov-08 17:21N 14°34' W 061°06'0 0.0
2017-Nov-08 16:51N 14°34' W 061°06'0 0.1
2017-Nov-08 16:30N 14°34' W 061°06'0 0.0
2017-Nov-08 16:00N 14°34' W 061°06'0 0.1
2017-Nov-08 15:30N 14°34' W 061°06'0 0.0
2017-Nov-08 15:00N 14°34' W 061°06'0 0.0
2017-Nov-08 14:30N 14°34' W 061°06'0 0.0
2017-Nov-08 14:00N 14°34' W 061°06'0 0.0
2017-Nov-08 13:31N 14°34' W 061°06'0 0.1
2017-Nov-08 12:55N 14°34' W 061°06'0 0.1
2017-Nov-08 12:31N 14°34' W 061°06'0 0.1
2017-Nov-08 12:01N 14°34' W 061°06'0 0.1
2017-Nov-08 11:30N 14°34' W 061°06'0 0.0
2017-Nov-08 11:01N 14°34' W 061°06'0 0.0
2017-Nov-08 10:31N 14°34' W 061°06'0 0.1
2017-Nov-08 10:00N 14°34' W 061°06'0 0.0
2017-Nov-08 09:30N 14°34' W 061°06'0 0.0
2017-Nov-08 09:01N 14°34' W 061°06'0 0.0
2017-Nov-08 08:31N 14°34' W 061°06'0 0.2
2017-Nov-08 08:00N 14°34' W 061°06'1 1.5
2017-Nov-08 07:30N 14°34' W 061°06'5 8.8
2017-Nov-08 06:59N 14°37' W 061°10'132 8.4
2017-Nov-07 15:20N 16°05' W 062°52'3 8.8
2017-Nov-07 15:00N 16°07' W 062°55'  
2017-Nov-04 07:03N 16°28' W 062°40'111.0
2017-Nov-04 06:56N 16°28' W 062°39'510.9
2017-Nov-04 06:27N 16°25' W 062°35'511.0
2017-Nov-04 06:00N 16°22' W 062°30'2110.5
2017-Nov-04 03:58N 16°12' W 062°11'5 9.7
2017-Nov-04 03:26N 16°09' W 062°06'4 9.6
2017-Nov-04 03:00N 16°07' W 062°03'5 9.7
2017-Nov-04 02:30N 16°04' W 061°59'710.0
2017-Nov-04 01:47N 16°00' W 061°52'310.3
2017-Nov-04 01:29N 15°59' W 061°49'610.2
2017-Nov-04 00:53N 15°56' W 061°44'17 9.2
2017-Nov-03 23:05N 16°06' W 061°30'310.6
2017-Nov-03 22:48N 16°10' W 061°30'4 9.1
2017-Nov-03 22:25N 16°13' W 061°32'2 4.1
2017-Nov-03 22:00N 16°14' W 061°33'0 0.0
2017-Nov-03 21:30N 16°14' W 061°33'0 0.0
2017-Nov-03 21:00N 16°14' W 061°33'0 0.0
2017-Nov-03 20:30N 16°14' W 061°33'0 0.0
2017-Nov-03 20:00N 16°14' W 061°33'0 0.0
2017-Nov-03 19:30N 16°14' W 061°33'0 0.0
2017-Nov-03 19:00N 16°14' W 061°33'0 0.0
2017-Nov-03 18:30N 16°14' W 061°33'0 0.0
2017-Nov-03 18:00N 16°14' W 061°33'0 0.0
2017-Nov-03 17:30N 16°14' W 061°33'0 0.0
2017-Nov-03 17:00N 16°14' W 061°33'0 0.0
2017-Nov-03 16:30N 16°14' W 061°33'0 0.0
2017-Nov-03 15:59N 16°14' W 061°33'0 0.0
2017-Nov-03 15:30N 16°14' W 061°33'0 0.0
2017-Nov-03 15:00N 16°14' W 061°33'0 0.0
2017-Nov-03 14:30N 16°14' W 061°33'0 0.0
2017-Nov-03 14:00N 16°14' W 061°33'0 0.0
2017-Nov-03 13:30N 16°14' W 061°33'0 0.0
2017-Nov-03 13:00N 16°14' W 061°33'0 0.0
2017-Nov-03 12:30N 16°14' W 061°33'0 0.0
2017-Nov-03 12:00N 16°14' W 061°33'0 0.0
2017-Nov-03 11:30N 16°14' W 061°33'0 0.0
2017-Nov-03 11:00N 16°14' W 061°33'0 0.0
2017-Nov-03 10:30N 16°14' W 061°33'0 0.0
2017-Nov-03 10:00N 16°14' W 061°33'0 0.0
2017-Nov-03 09:30N 16°14' W 061°33'0 0.0
2017-Nov-03 09:00N 16°14' W 061°33'0 0.0
2017-Nov-03 08:30N 16°14' W 061°33'0 0.0
2017-Nov-03 08:00N 16°14' W 061°33'0 0.0
2017-Nov-03 07:30N 16°14' W 061°33'0 0.0
2017-Nov-03 07:00N 16°14' W 061°33'0 0.0
2017-Nov-03 06:30N 16°14' W 061°33'0 0.0
2017-Nov-03 06:00N 16°14' W 061°33'0 0.0
2017-Nov-03 05:29N 16°14' W 061°33'0 0.0
2017-Nov-03 05:00N 16°14' W 061°33'0 0.0
2017-Nov-03 04:30N 16°14' W 061°33'0 0.0
2017-Nov-03 04:00N 16°14' W 061°33'0 0.0
2017-Nov-03 03:30N 16°14' W 061°33'0 0.0
2017-Nov-03 03:00N 16°14' W 061°33'0 0.0
2017-Nov-03 02:30N 16°14' W 061°33'0 0.0
2017-Nov-03 02:00N 16°14' W 061°33'0 0.0
2017-Nov-03 01:30N 16°14' W 061°33'0 0.0
2017-Nov-03 01:00N 16°14' W 061°33'0 0.0
2017-Nov-03 00:30N 16°14' W 061°33'0 0.0
2017-Nov-03 00:00N 16°14' W 061°33'0 0.0
2017-Nov-02 23:30N 16°14' W 061°33'0 0.1
2017-Nov-02 22:59N 16°14' W 061°33'1 2.2
2017-Nov-02 22:30N 16°13' W 061°32'1 2.7
2017-Nov-02 22:00N 16°12' W 061°32'0 0.0
2017-Nov-02 21:14N 16°12' W 061°32'0 0.0
2017-Nov-02 20:53N 16°12' W 061°32'0 0.1
2017-Nov-02 20:28N 16°12' W 061°32'0 0.2
2017-Nov-02 19:58N 16°12' W 061°32'0 0.0
2017-Nov-02 16:43N 16°12' W 061°33'0 0.0
2017-Nov-02 16:04N 16°12' W 061°33'0 0.1
2017-Nov-02 15:52N 16°12' W 061°33'0 0.0
2017-Nov-02 15:25N 16°12' W 061°33'0 0.1
2017-Nov-02 14:49N 16°12' W 061°33'0 0.2
2017-Nov-02 14:25N 16°12' W 061°32'0 0.1
2017-Nov-02 13:58N 16°12' W 061°32'0 0.0
2017-Nov-02 13:28N 16°12' W 061°32'0 0.0
2017-Nov-02 12:58N 16°12' W 061°32'0 0.0
2017-Nov-02 12:28N 16°12' W 061°32'0 0.0
2017-Nov-02 11:58N 16°12' W 061°32'0 0.0
2017-Nov-02 11:28N 16°12' W 061°32'0 0.0
2017-Nov-02 10:58N 16°12' W 061°32'0 0.0
2017-Nov-02 10:25N 16°12' W 061°32'0 0.1
2017-Nov-02 09:58N 16°12' W 061°32'0 0.1
2017-Nov-02 09:25N 16°12' W 061°32'0 0.1
2017-Nov-02 08:52N 16°12' W 061°33'0 0.0
2017-Nov-02 07:58N 16°12' W 061°33'0 0.0
2017-Nov-02 07:28N 16°12' W 061°33'0 0.0
2017-Nov-02 06:01N 16°12' W 061°33'0 0.0
2017-Nov-02 05:31N 16°12' W 061°33'0 0.0
2017-Nov-02 05:25N 16°12' W 061°33'0 0.0
2017-Nov-02 04:49N 16°12' W 061°33'0 0.0
2017-Nov-02 04:28N 16°12' W 061°33'0 0.0
2017-Nov-02 03:37N 16°12' W 061°33'0 0.1
2017-Nov-02 03:16N 16°12' W 061°33'0 0.0
2017-Nov-02 02:58N 16°12' W 061°33'0 0.0
2017-Nov-02 02:22N 16°12' W 061°33'0 0.0
2017-Nov-02 01:55N 16°12' W 061°33'0 0.0
2017-Nov-01 23:43N 16°12' W 061°33'0 0.0
2017-Nov-01 20:07N 16°12' W 061°33'0 0.0
2017-Nov-01 19:43N 16°12' W 061°33'0 0.0
2017-Nov-01 19:22N 16°12' W 061°33'0 0.0
2017-Nov-01 18:28N 16°12' W 061°33'0 0.0
2017-Nov-01 02:00N 16°12' W 061°32'  

Dump ship's entire track history